createdAt,value
2019-02-14T16:54:20.854Z,11.97
2019-02-14T16:57:10.986Z,12.00
2019-02-14T17:00:01.205Z,11.57
2019-02-14T17:02:51.386Z,11.57
2019-02-14T17:05:41.693Z,12.70
2019-02-14T17:08:31.962Z,12.47
2019-02-14T17:11:21.944Z,13.10
2019-02-14T17:14:12.157Z,12.50
2019-02-14T17:17:02.501Z,12.67
2019-02-14T17:19:53.074Z,11.83
2019-02-14T17:22:43.262Z,13.70
2019-02-14T17:25:35.326Z,14.60
2019-02-14T17:28:25.307Z,13.53
2019-02-14T17:31:15.347Z,13.63
2019-02-14T17:34:05.602Z,12.53
2019-02-14T17:36:55.910Z,11.67
2019-02-14T17:39:46.187Z,12.77
2019-02-14T17:42:36.534Z,12.90
2019-02-14T17:45:26.774Z,12.70
2019-02-14T17:48:16.994Z,13.10
2019-02-14T17:51:07.605Z,14.50
2019-02-14T17:53:57.958Z,12.93
2019-02-14T17:56:48.569Z,13.80
2019-02-14T17:59:39.414Z,13.00
2019-02-14T18:02:29.382Z,13.23
2019-02-14T18:05:20.031Z,12.80
2019-02-14T18:08:10.350Z,13.43
2019-02-14T18:11:00.598Z,13.77
2019-02-14T18:13:50.985Z,12.57
2019-02-14T18:16:41.085Z,14.20
2019-02-14T18:19:32.781Z,15.40
2019-02-14T18:22:23.226Z,16.43
2019-02-14T18:25:13.537Z,14.60
2019-02-14T18:28:04.085Z,14.30
2019-02-14T18:30:54.346Z,13.83
2019-02-14T18:33:45.505Z,14.50
2019-02-14T18:36:35.738Z,15.23
2019-02-14T18:39:25.783Z,13.07
2019-02-14T18:42:16.083Z,15.57
2019-02-14T18:45:08.160Z,16.63
2019-02-14T18:47:58.077Z,16.37
2019-02-14T18:50:48.327Z,14.87
2019-02-14T18:53:39.601Z,14.13
2019-02-14T18:56:30.007Z,14.40
2019-02-14T18:59:20.951Z,13.57
2019-02-14T19:02:11.269Z,13.70
2019-02-14T19:05:01.682Z,13.97
2019-02-14T19:07:51.967Z,12.57
2019-02-14T19:10:42.488Z,11.97
2019-02-14T19:13:33.054Z,13.13
2019-02-14T19:16:23.311Z,13.10
2019-02-14T19:19:14.530Z,12.17
2019-02-14T19:22:04.482Z,13.80
2019-02-14T19:24:54.688Z,15.93
2019-02-14T19:27:44.805Z,14.33
2019-02-14T19:30:35.382Z,15.17
2019-02-14T19:33:25.738Z,14.33
2019-02-14T19:36:15.981Z,13.73
2019-02-14T19:39:06.742Z,15.57
2019-02-14T19:41:56.626Z,16.23
2019-02-14T19:44:46.964Z,16.47
2019-02-14T19:47:37.158Z,13.57
2019-02-14T19:50:27.387Z,14.17
2019-02-14T19:53:17.586Z,13.83
2019-02-14T19:56:07.993Z,13.20
2019-02-14T19:58:58.978Z,13.07
2019-02-14T20:01:48.954Z,11.93
2019-02-14T20:04:39.247Z,12.67
2019-02-14T20:07:29.706Z,13.20
2019-02-14T20:10:19.856Z,13.93
2019-02-14T20:13:10.085Z,14.63
2019-02-14T20:16:00.882Z,16.27
2019-02-14T20:18:51.450Z,17.50
2019-02-14T20:21:41.581Z,17.93
2019-02-14T20:24:31.993Z,19.50
2019-02-14T20:27:22.203Z,17.37
2019-02-14T20:30:13.026Z,16.07
2019-02-14T20:33:05.016Z,16.87
2019-02-14T20:35:54.642Z,17.63
2019-02-14T20:38:44.693Z,19.83
2019-02-14T20:41:34.934Z,18.70
2019-02-14T20:44:24.843Z,19.33
2019-02-14T20:47:14.842Z,21.13
2019-02-14T20:50:05.392Z,19.83
2019-02-14T20:52:55.465Z,18.80
2019-02-14T20:55:46.556Z,20.00
2019-02-14T20:58:36.961Z,20.83
2019-02-14T21:01:27.389Z,17.87
2019-02-14T21:04:17.675Z,18.10
2019-02-14T21:07:07.750Z,17.33
2019-02-14T21:09:58.026Z,21.17
2019-02-14T21:12:48.106Z,19.30
2019-02-14T21:15:38.566Z,18.27
2019-02-14T21:18:28.880Z,18.23
2019-02-14T21:21:19.265Z,17.30
2019-02-14T21:24:09.620Z,18.37
2019-02-14T21:26:59.770Z,18.03
2019-02-14T21:29:50.083Z,15.90
2019-02-14T21:32:40.336Z,17.50
2019-02-14T21:35:31.471Z,17.93
2019-02-14T21:38:22.666Z,16.93
2019-02-14T21:41:12.701Z,18.47
2019-02-14T21:44:03.014Z,17.13
2019-02-14T21:46:53.222Z,16.57
2019-02-14T21:49:43.469Z,16.60
2019-02-14T21:52:33.859Z,18.67
2019-02-14T21:55:24.225Z,19.80
2019-02-14T21:58:14.375Z,19.37
2019-02-14T22:01:04.681Z,20.77
2019-02-14T22:03:55.220Z,19.20
2019-02-14T22:06:45.398Z,20.43
2019-02-14T22:09:35.807Z,19.57
2019-02-14T22:12:39.787Z,19.30
2019-02-14T22:15:17.607Z,18.73
2019-02-14T22:18:07.810Z,19.63
2019-02-14T22:20:58.190Z,18.87
2019-02-14T22:23:48.375Z,17.77
2019-02-14T22:26:38.474Z,18.23
2019-02-14T22:29:28.863Z,18.50
2019-02-14T22:32:19.058Z,17.40
2019-02-14T22:35:09.350Z,18.10
2019-02-14T22:37:59.667Z,17.90
2019-02-14T22:40:49.882Z,17.43
2019-02-14T22:43:39.884Z,17.77
2019-02-14T22:46:30.095Z,16.80
2019-02-14T22:49:20.811Z,16.73
2019-02-14T22:52:10.842Z,18.40
2019-02-14T22:55:01.458Z,19.67
2019-02-14T22:57:51.890Z,19.57
2019-02-14T23:00:47.494Z,18.10
2019-02-14T23:03:38.622Z,17.53
2019-02-14T23:06:29.678Z,19.47
2019-02-14T23:09:19.994Z,16.50
2019-02-14T23:12:10.376Z,16.17
2019-02-14T23:15:00.748Z,17.30
2019-02-14T23:17:51.913Z,18.97
2019-02-14T23:20:42.406Z,18.03
2019-02-14T23:23:32.701Z,17.50
2019-02-14T23:26:23.353Z,17.30
2019-02-14T23:29:14.188Z,18.50
2019-02-14T23:32:04.453Z,18.17
2019-02-14T23:34:54.713Z,17.83
2019-02-14T23:37:45.699Z,16.70
2019-02-14T23:40:36.068Z,18.07
2019-02-14T23:43:26.746Z,18.27
2019-02-14T23:46:17.325Z,20.00
2019-02-14T23:49:07.525Z,19.57
2019-02-14T23:51:57.479Z,22.50
2019-02-14T23:54:47.706Z,22.17
2019-02-14T23:57:37.753Z,23.43
